Time;durP1;ratioP1;P1;durP2;ratioP2;P2;SDS_P1;SDS_P2;PMS_P1;PMS_P2;Temp;Humidity;BMP_temperature;BMP_pressure;BME280_temperature;BME280_humidity;BME280_pressure;Samples;Min_cycle;Max_cycle;Signal;HPM_P1;HPM_P2
2023/09/01 00:01:10;;;;;;;1.08;0.60;;;;;;;20.01;59.53;100026.06;4393533;32;33619;-86
2023/09/01 00:03:39;;;;;;;1.58;0.32;;;;;;;20.05;59.42;100014.13;4394202;32;34155;-86
2023/09/01 00:06:12;;;;;;;0.10;0.10;;;;;;;20.05;59.41;100020.31;4377713;32;34366;-86
2023/09/01 00:08:41;;;;;;;0.43;0.40;;;;;;;20.06;59.45;100027.37;4379899;32;34414;-86
2023/09/01 00:11:10;;;;;;;1.98;0.40;;;;;;;20.13;59.04;100014.34;4395069;32;34630;-86
2023/09/01 00:13:39;;;;;;;0.62;0.28;;;;;;;20.07;59.06;100022.88;4398137;32;32021;-86
2023/09/01 00:16:07;;;;;;;0.40;0.40;;;;;;;20.11;58.67;100019.84;4393463;32;34006;-85
2023/09/01 00:18:36;;;;;;;0.70;0.40;;;;;;;20.04;58.83;100026.66;4394992;32;35021;-85
2023/09/01 00:21:04;;;;;;;0.10;0.10;;;;;;;20.00;58.95;100021.66;4373358;32;32894;-85
2023/09/01 00:23:32;;;;;;;0.00;0.00;;;;;;;19.93;59.33;100021.28;4381922;32;32155;-85
2023/09/01 00:26:00;;;;;;;2.90;0.37;;;;;;;20.08;58.63;100027.25;4400585;32;33643;-85
2023/09/01 00:28:28;;;;;;;0.50;0.10;;;;;;;20.06;58.40;100021.19;4398765;32;33633;-85
2023/09/01 00:30:57;;;;;;;0.43;0.37;;;;;;;19.98;58.37;100023.59;4389979;32;33822;-85
2023/09/01 00:33:29;;;;;;;0.10;0.10;;;;;;;19.91;58.31;100028.59;4393148;32;33353;-85
2023/09/01 00:35:58;;;;;;;0.52;0.35;;;;;;;19.87;58.39;100032.50;4399743;32;33883;-84
2023/09/01 00:38:26;;;;;;;0.03;0.03;;;;;;;19.75;58.90;100028.97;4378228;32;33770;-85
2023/09/01 00:40:59;;;;;;;0.52;0.52;;;;;;;19.78;58.92;100025.19;4364564;32;34587;-84
2023/09/01 00:43:27;;;;;;;0.40;0.40;;;;;;;19.60;59.77;100033.66;4380773;32;33156;-84
2023/09/01 00:45:56;;;;;;;1.48;1.08;;;;;;;19.51;59.86;100037.03;4366421;32;32479;-84
2023/09/01 00:48:25;;;;;;;0.28;0.28;;;;;;;19.54;59.87;100036.78;4403687;32;32798;-83
2023/09/01 00:50:52;;;;;;;0.20;0.20;;;;;;;19.49;59.91;100033.63;4394247;32;33964;-83
2023/09/01 00:53:21;;;;;;;0.22;0.22;;;;;;;19.37;60.09;100039.91;4390345;32;32694;-83
2023/09/01 00:55:50;;;;;;;1.00;0.57;;;;;;;19.36;60.08;100031.03;4376889;32;32939;-85
2023/09/01 00:58:18;;;;;;;0.62;0.62;;;;;;;19.46;59.92;100033.84;4365602;32;33585;-85
2023/09/01 01:00:47;;;;;;;0.20;0.20;;;;;;;19.41;59.85;100041.38;4369027;32;32435;-85
2023/09/01 01:03:15;;;;;;;0.10;0.10;;;;;;;19.15;60.55;100036.19;4400517;32;33631;-85
2023/09/01 01:05:48;;;;;;;0.32;0.32;;;;;;;19.08;60.83;100040.28;4391187;32;32979;-85
2023/09/01 01:08:35;;;;;;;0.73;0.73;;;;;;;18.93;61.25;100041.44;4386491;32;33010;-85
2023/09/01 01:11:10;;;;;;;0.47;0.37;;;;;;;18.92;61.26;100037.06;4384824;32;32843;-86
2023/09/01 01:13:41;;;;;;;0.03;0.03;;;;;;;18.91;61.13;100043.41;4387665;32;33031;-86
2023/09/01 01:16:09;;;;;;;0.30;0.30;;;;;;;18.83;61.44;100046.63;4377059;32;32908;-86
2023/09/01 01:18:38;;;;;;;0.95;0.73;;;;;;;18.96;60.75;100040.37;4386716;32;33631;-86
2023/09/01 01:21:17;;;;;;;0.43;0.43;;;;;;;18.85;61.13;100039.34;4363077;32;32506;-86
2023/09/01 01:23:45;;;;;;;0.60;0.60;;;;;;;18.65;61.63;100038.09;4382365;32;32027;-85
2023/09/01 01:26:16;;;;;;;0.10;0.10;;;;;;;18.72;61.60;100043.91;4382783;32;33776;-86
2023/09/01 01:28:45;;;;;;;0.00;0.00;;;;;;;18.64;61.81;100046.25;4374572;32;33632;-86
2023/09/01 01:31:13;;;;;;;0.70;0.13;;;;;;;18.70;61.66;100045.81;4386915;32;34193;-86
2023/09/01 01:33:44;;;;;;;0.10;0.10;;;;;;;18.65;61.67;100039.91;4393233;32;31832;-86
2023/09/01 01:36:18;;;;;;;0.05;0.05;;;;;;;18.50;62.43;100036.56;4400594;32;33821;-85
2023/09/01 01:38:58;;;;;;;0.20;0.20;;;;;;;18.66;61.92;100039.84;4391641;32;32446;-86
2023/09/01 01:41:52;;;;;;;0.40;0.20;;;;;;;18.59;61.88;100025.19;4368722;32;33895;-86
2023/09/01 01:44:25;;;;;;;0.20;0.10;;;;;;;18.68;61.61;100037.91;4377610;32;33437;-85
2023/09/01 01:46:53;;;;;;;0.85;0.60;;;;;;;18.58;61.70;100036.00;4390131;32;33870;-85
2023/09/01 01:49:21;;;;;;;0.00;0.00;;;;;;;18.53;61.65;100035.50;4383813;32;33551;-85
2023/09/01 01:51:49;;;;;;;0.30;0.30;;;;;;;18.38;62.06;100042.81;4385493;32;33737;-83
2023/09/01 01:54:17;;;;;;;0.00;0.00;;;;;;;18.33;62.46;100047.63;4362804;32;32817;-84
2023/09/01 01:56:45;;;;;;;0.77;0.50;;;;;;;18.22;62.62;100050.19;4384270;32;33808;-84
2023/09/01 01:59:13;;;;;;;0.57;0.57;;;;;;;18.38;61.62;100048.16;4390674;32;33600;-84
2023/09/01 02:01:42;;;;;;;0.10;0.10;;;;;;;18.31;61.93;100052.22;4389448;32;32343;-84
2023/09/01 02:04:10;;;;;;;0.00;0.00;;;;;;;18.13;62.33;100057.91;4382422;32;32683;-84
2023/09/01 02:06:37;;;;;;;0.43;0.43;;;;;;;18.03;63.02;100061.34;4370891;32;33665;-84
2023/09/01 02:09:09;;;;;;;0.40;0.40;;;;;;;18.06;62.88;100058.47;4399850;32;36594;-85
2023/09/01 02:11:38;;;;;;;1.75;0.70;;;;;;;18.03;62.78;100066.69;4381506;32;32790;-84
2023/09/01 02:14:06;;;;;;;0.00;0.00;;;;;;;17.97;63.01;100073.31;4396535;32;34195;-85
2023/09/01 02:16:34;;;;;;;0.05;0.05;;;;;;;17.98;62.86;100080.34;4399923;32;34207;-86
2023/09/01 02:19:01;;;;;;;0.35;0.35;;;;;;;17.99;62.77;100074.06;4392718;32;33585;-85
2023/09/01 02:21:29;;;;;;;1.00;0.15;;;;;;;18.05;62.52;100076.31;4373501;32;33206;-84
2023/09/01 02:23:57;;;;;;;0.25;0.25;;;;;;;18.03;62.54;100072.88;4379275;32;32742;-84
2023/09/01 02:26:25;;;;;;;0.28;0.20;;;;;;;17.85;63.14;100074.16;4385610;32;32838;-84
2023/09/01 02:28:53;;;;;;;0.00;0.00;;;;;;;17.90;62.93;100072.91;4380334;32;33970;-84
2023/09/01 02:31:21;;;;;;;0.00;0.00;;;;;;;17.99;62.60;100076.72;4370642;32;34099;-85
2023/09/01 02:33:49;;;;;;;0.40;0.40;;;;;;;17.97;62.40;100075.13;4403895;32;33428;-85
2023/09/01 02:36:33;;;;;;;0.55;0.28;;;;;;;17.97;62.29;100083.16;4382963;32;33985;-85
2023/09/01 02:39:04;;;;;;;0.20;0.20;;;;;;;18.00;62.17;100077.59;4382822;32;33421;-85
2023/09/01 02:41:32;;;;;;;1.75;0.45;;;;;;;17.92;62.52;100070.97;4379185;32;32942;-84
2023/09/01 02:44:00;;;;;;;0.13;0.10;;;;;;;17.98;62.48;100074.16;4382030;32;33524;-84
2023/09/01 02:46:28;;;;;;;0.15;0.15;;;;;;;17.84;62.78;100078.66;4386082;32;34495;-84
2023/09/01 02:48:56;;;;;;;0.37;0.37;;;;;;;17.81;62.76;100073.53;4404863;32;33003;-83
2023/09/01 02:51:24;;;;;;;0.00;0.00;;;;;;;17.89;62.71;100078.31;4382430;32;33098;-84
2023/09/01 02:53:51;;;;;;;0.00;0.00;;;;;;;17.90;62.73;100072.91;4413052;32;32065;-84
2023/09/01 02:56:19;;;;;;;1.67;0.90;;;;;;;17.85;62.80;100075.03;4387777;32;33520;-84
2023/09/01 02:58:47;;;;;;;0.73;0.70;;;;;;;17.78;63.23;100067.53;4405546;32;34857;-84
2023/09/01 03:01:15;;;;;;;0.10;0.10;;;;;;;17.73;63.15;100069.66;4395443;32;32783;-85
2023/09/01 03:03:43;;;;;;;0.00;0.00;;;;;;;17.76;63.38;100069.47;4387543;32;34006;-85
2023/09/01 03:06:11;;;;;;;0.13;0.10;;;;;;;17.73;63.46;100069.66;4385976;32;33731;-85
2023/09/01 03:08:41;;;;;;;0.37;0.37;;;;;;;17.77;63.12;100068.50;4367800;32;33487;-85
2023/09/01 03:11:22;;;;;;;0.00;0.00;;;;;;;17.79;62.77;100063.91;4394493;32;32380;-85
2023/09/01 03:13:50;;;;;;;1.15;0.52;;;;;;;17.61;63.36;100066.88;4400286;32;33406;-84
2023/09/01 03:16:18;;;;;;;0.37;0.37;;;;;;;17.58;63.39;100066.22;4370841;32;32928;-84
2023/09/01 03:18:46;;;;;;;0.20;0.20;;;;;;;17.84;61.93;100072.44;4403919;32;34472;-84
2023/09/01 03:21:14;;;;;;;0.25;0.25;;;;;;;17.55;63.10;100072.62;4389565;32;32930;-84
2023/09/01 03:23:41;;;;;;;3.75;0.20;;;;;;;17.61;63.22;100074.87;4392120;32;32399;-84
2023/09/01 03:26:10;;;;;;;0.00;0.00;;;;;;;17.61;63.33;100074.87;4386532;32;33087;-84
2023/09/01 03:28:39;;;;;;;0.00;0.00;;;;;;;17.58;63.28;100077.75;4399292;32;33862;-85
2023/09/01 03:31:11;;;;;;;0.05;0.05;;;;;;;17.59;63.44;100079.47;4402239;32;34190;-85
2023/09/01 03:33:40;;;;;;;0.88;0.70;;;;;;;17.53;63.59;100077.22;4392311;32;34611;-85
2023/09/01 03:36:08;;;;;;;0.57;0.30;;;;;;;17.63;63.01;100078.28;4393551;32;33123;-85
2023/09/01 03:38:36;;;;;;;0.00;0.00;;;;;;;17.52;63.29;100078.19;4395676;32;32785;-85
2023/09/01 03:41:07;;;;;;;0.20;0.20;;;;;;;17.48;63.08;100076.69;4406023;32;33891;-85
2023/09/01 03:43:34;;;;;;;0.80;0.80;;;;;;;17.40;63.42;100081.66;4376435;32;32688;-85
2023/09/01 03:46:02;;;;;;;0.00;0.00;;;;;;;17.46;63.31;100083.06;4389926;32;33685;-85
2023/09/01 03:48:31;;;;;;;0.20;0.20;;;;;;;17.29;63.78;100086.88;4409308;32;34512;-85
2023/09/01 03:51:06;;;;;;;0.00;0.00;;;;;;;17.23;63.89;100090.78;4401534;32;32273;-85
2023/09/01 03:53:35;;;;;;;0.10;0.00;;;;;;;17.36;63.28;100093.50;4396959;32;32777;-85
2023/09/01 03:56:08;;;;;;;1.20;1.00;;;;;;;17.32;63.60;100092.00;4391093;32;32160;-85
2023/09/01 03:58:37;;;;;;;1.37;0.47;;;;;;;17.40;63.27;100095.00;4382586;32;33848;-83
2023/09/01 04:01:11;;;;;;;0.10;0.10;;;;;;;17.27;63.24;100100.31;4387532;32;33835;-82
2023/09/01 04:03:42;;;;;;;0.10;0.10;;;;;;;17.34;62.64;100100.78;4374638;32;32613;-84
2023/09/01 04:06:10;;;;;;;0.17;0.17;;;;;;;17.37;62.77;100101.41;4372022;32;33376;-84
2023/09/01 04:09:08;;;;;;;0.00;0.00;;;;;;;17.40;62.77;100097.69;4390973;32;34033;-84
2023/09/01 04:11:36;;;;;;;0.00;0.00;;;;;;;17.39;62.93;100095.97;4383419;32;32355;-84
2023/09/01 04:14:04;;;;;;;1.02;0.25;;;;;;;17.42;63.05;100101.09;4390813;32;33310;-86
2023/09/01 04:16:32;;;;;;;0.68;0.68;;;;;;;17.37;62.78;100097.87;4399867;32;33696;-85
2023/09/01 04:19:00;;;;;;;0.35;0.30;;;;;;;17.53;62.43;100106.59;4397835;32;33182;-84
2023/09/01 04:21:27;;;;;;;0.40;0.15;;;;;;;17.59;62.75;100100.81;4389203;32;34720;-85
2023/09/01 04:23:55;;;;;;;0.08;0.08;;;;;;;17.57;62.91;100101.91;4388017;32;33696;-85
2023/09/01 04:26:23;;;;;;;0.10;0.10;;;;;;;17.96;61.36;100102.81;4388733;32;33868;-84
2023/09/01 04:28:50;;;;;;;0.30;0.30;;;;;;;17.79;62.33;100102.16;4404589;32;33203;-84
2023/09/01 04:31:27;;;;;;;0.20;0.20;;;;;;;17.74;62.60;100103.44;4391339;32;32619;-83
2023/09/01 04:33:59;;;;;;;0.43;0.43;;;;;;;17.69;63.48;100103.72;4395628;32;31980;-84
2023/09/01 04:36:28;;;;;;;1.00;0.60;;;;;;;17.94;62.42;100094.03;4375595;32;33849;-84
2023/09/01 04:39:13;;;;;;;0.17;0.17;;;;;;;17.91;62.64;100095.13;4397814;32;33666;-84
2023/09/01 04:41:41;;;;;;;0.00;0.00;;;;;;;17.95;62.68;100101.97;4383270;32;33031;-84
2023/09/01 04:44:08;;;;;;;0.30;0.30;;;;;;;18.15;62.09;100097.91;4395758;32;33055;-85
2023/09/01 04:46:37;;;;;;;0.10;0.10;;;;;;;18.48;60.67;100105.34;4370397;32;34645;-85
2023/09/01 04:49:04;;;;;;;1.40;0.65;;;;;;;18.61;60.25;100095.47;4379323;32;33699;-84
2023/09/01 04:51:32;;;;;;;0.30;0.30;;;;;;;18.44;60.88;100082.47;4379849;32;33191;-84
2023/09/01 04:54:00;;;;;;;0.25;0.25;;;;;;;18.29;61.64;100096.94;4369438;32;32819;-84
2023/09/01 04:57:31;;;;;;;0.45;0.45;;;;;;;18.51;61.16;100089.06;4365200;32;33469;-84
2023/09/01 05:00:00;;;;;;;2.22;0.82;;;;;;;18.50;61.44;100091.84;4381433;32;33372;-85
2023/09/01 05:02:30;;;;;;;0.00;0.00;;;;;;;18.35;62.38;100100.00;4384673;32;34316;-84
2023/09/01 05:04:58;;;;;;;0.50;0.50;;;;;;;18.64;61.70;100091.72;4375318;32;34122;-85
2023/09/01 05:07:26;;;;;;;0.55;0.52;;;;;;;18.88;60.17;100097.13;4382632;32;34433;-86
2023/09/01 05:09:55;;;;;;;0.10;0.10;;;;;;;18.83;60.46;100091.25;4385734;32;34841;-85
2023/09/01 05:12:29;;;;;;;0.37;0.28;;;;;;;18.87;60.37;100100.78;4373626;32;33098;-86
2023/09/01 05:15:04;;;;;;;0.05;0.03;;;;;;;18.88;60.62;100102.47;4363386;32;33830;-86
2023/09/01 05:17:33;;;;;;;0.22;0.22;;;;;;;18.92;59.98;100106.62;4371777;32;34066;-85
2023/09/01 05:20:07;;;;;;;0.15;0.15;;;;;;;19.01;59.99;100103.28;4392134;32;32592;-86
2023/09/01 05:22:42;;;;;;;0.05;0.05;;;;;;;19.08;59.56;100109.88;4381758;32;34505;-87
2023/09/01 05:25:11;;;;;;;0.57;0.10;;;;;;;19.12;59.60;100111.37;4379839;32;32050;-87
2023/09/01 05:27:39;;;;;;;0.17;0.17;;;;;;;19.10;60.21;100115.13;4378978;32;33933;-87
2023/09/01 05:30:26;;;;;;;0.93;0.47;;;;;;;18.89;61.02;100122.91;4382899;32;33606;-87
2023/09/01 05:32:54;;;;;;;0.25;0.25;;;;;;;18.60;62.47;100109.78;4384448;32;34244;-87
2023/09/01 05:35:23;;;;;;;2.60;0.85;;;;;;;18.73;62.43;100108.94;4386178;32;33412;-87
2023/09/01 05:37:51;;;;;;;0.93;0.55;;;;;;;18.83;62.35;100115.34;4402131;32;32933;-87
2023/09/01 05:40:19;;;;;;;0.52;0.52;;;;;;;18.92;62.15;100110.16;4377421;32;34563;-87
2023/09/01 05:42:47;;;;;;;0.35;0.35;;;;;;;19.10;61.78;100117.81;4395514;32;32814;-87
2023/09/01 05:45:15;;;;;;;0.00;0.00;;;;;;;19.24;61.49;100119.47;4389437;32;32828;-87
2023/09/01 05:47:43;;;;;;;0.98;0.60;;;;;;;19.41;61.06;100114.53;4383305;32;33820;-87
2023/09/01 05:50:11;;;;;;;1.45;0.10;;;;;;;19.50;60.72;100123.69;4370826;32;34528;-89
2023/09/01 05:52:47;;;;;;;0.28;0.28;;;;;;;19.51;60.87;100112.00;4373092;32;32945;-88
2023/09/01 05:55:15;;;;;;;0.80;0.57;;;;;;;19.50;61.05;100121.03;4380795;32;32384;-88
2023/09/01 05:57:43;;;;;;;0.20;0.15;;;;;;;19.89;59.40;100121.66;4376678;32;33098;-88
2023/09/01 06:00:11;;;;;;;0.00;0.00;;;;;;;19.98;58.48;100128.13;4370613;32;32718;-88
2023/09/01 06:02:39;;;;;;;1.00;0.68;;;;;;;19.95;58.74;100121.19;4374554;32;33987;-88
2023/09/01 06:05:07;;;;;;;0.37;0.37;;;;;;;20.08;58.67;100126.44;4394520;32;32405;-88
2023/09/01 06:07:36;;;;;;;0.28;0.28;;;;;;;20.09;59.00;100123.66;4369138;32;32080;-88
2023/09/01 06:10:04;;;;;;;0.30;0.30;;;;;;;20.06;59.63;100128.41;4373396;32;35401;-88
2023/09/01 06:12:33;;;;;;;1.17;0.65;;;;;;;20.38;58.98;100123.19;4386019;32;33927;-88
2023/09/01 06:15:00;;;;;;;0.25;0.25;;;;;;;20.37;59.31;100121.50;4370689;32;33194;-88
2023/09/01 06:17:33;;;;;;;0.10;0.10;;;;;;;20.63;58.91;100122.97;4355096;32;33186;-89
2023/09/01 06:20:15;;;;;;;0.20;0.13;;;;;;;20.63;59.05;100122.97;4361263;32;33070;-88
2023/09/01 06:22:47;;;;;;;0.10;0.10;;;;;;;20.65;58.90;100118.34;4367083;32;33644;-89
2023/09/01 06:25:19;;;;;;;1.35;1.02;;;;;;;21.18;58.45;100118.47;4383444;32;33974;-89
2023/09/01 06:27:46;;;;;;;0.82;0.37;;;;;;;21.51;55.23;100113.09;4369844;32;33786;-88
2023/09/01 06:30:15;;;;;;;0.52;0.47;;;;;;;21.50;56.61;100104.19;4386545;32;33595;-88
2023/09/01 06:32:43;;;;;;;0.15;0.15;;;;;;;21.58;55.85;100109.78;4377029;32;34066;-88
2023/09/01 06:35:15;;;;;;;0.20;0.17;;;;;;;21.68;55.73;100113.38;4368046;32;32408;-89
2023/09/01 06:37:44;;;;;;;0.20;0.17;;;;;;;21.67;55.28;100111.69;4364328;32;32876;-89
2023/09/01 06:40:12;;;;;;;0.35;0.35;;;;;;;21.69;55.79;100115.09;4373575;32;32909;-88
2023/09/01 06:42:39;;;;;;;0.10;0.10;;;;;;;21.90;53.91;100112.41;4369513;32;32465;-88
2023/09/01 06:45:08;;;;;;;0.75;0.30;;;;;;;22.06;53.73;100114.63;4388686;32;33075;-89
2023/09/01 06:47:36;;;;;;;0.10;0.08;;;;;;;22.19;54.19;100115.28;4378481;32;33018;-90
2023/09/01 06:50:05;;;;;;;0.28;0.20;;;;;;;22.43;52.21;100116.81;4371623;32;32463;-89
2023/09/01 06:52:33;;;;;;;0.00;0.00;;;;;;;22.54;51.48;100119.41;4362978;32;33219;-89
2023/09/01 06:55:01;;;;;;;0.40;0.28;;;;;;;22.77;50.80;100119.22;4395939;32;34734;-89
2023/09/01 06:57:29;;;;;;;0.60;0.60;;;;;;;22.86;49.86;100123.78;4384784;32;32871;-89
2023/09/01 06:59:57;;;;;;;0.00;0.00;;;;;;;22.91;50.63;100124.22;4365621;32;33194;-89
2023/09/01 07:02:25;;;;;;;0.32;0.32;;;;;;;23.06;49.81;100136.31;4360515;32;33214;-89
2023/09/01 07:04:52;;;;;;;0.05;0.05;;;;;;;23.26;47.82;100137.19;4356799;32;32456;-89
2023/09/01 07:07:21;;;;;;;0.88;0.40;;;;;;;23.14;48.83;100141.87;4392563;32;33511;-89
2023/09/01 07:09:49;;;;;;;0.10;0.10;;;;;;;23.44;46.83;100140.88;4388444;32;32996;-89
2023/09/01 07:12:17;;;;;;;0.50;0.50;;;;;;;23.68;49.01;100137.78;4380298;32;33559;-89
2023/09/01 07:14:47;;;;;;;0.10;0.10;;;;;;;23.78;48.24;100140.47;4368625;32;33741;-89
2023/09/01 07:17:20;;;;;;;0.20;0.17;;;;;;;24.13;47.21;100139.88;4381260;32;33928;-89
2023/09/01 07:19:48;;;;;;;0.00;0.00;;;;;;;24.20;46.59;100132.88;4394734;32;32500;-89
2023/09/01 07:22:15;;;;;;;0.10;0.10;;;;;;;24.16;44.86;100136.88;4374516;32;33260;-89
2023/09/01 07:24:43;;;;;;;0.22;0.22;;;;;;;24.24;44.99;100134.28;4367680;32;32391;-89
2023/09/01 07:27:15;;;;;;;6.68;0.50;;;;;;;24.17;44.88;100138.59;4388367;32;33216;-89
2023/09/01 07:29:47;;;;;;;0.00;0.00;;;;;;;24.22;45.55;100133.59;4377596;32;33389;-89
2023/09/01 07:32:20;;;;;;;0.80;0.25;;;;;;;23.74;45.62;100147.19;4362120;32;32532;-90
2023/09/01 07:34:48;;;;;;;0.30;0.22;;;;;;;23.78;46.55;100151.25;4372607;32;32970;-89
2023/09/01 07:37:16;;;;;;;3.78;0.57;;;;;;;23.92;46.04;100152.69;4381947;32;32987;-89
2023/09/01 07:39:44;;;;;;;0.08;0.08;;;;;;;24.46;45.92;100152.03;4387715;32;32924;-90
2023/09/01 07:42:11;;;;;;;0.80;0.43;;;;;;;24.91;44.09;100153.94;4381501;32;33620;-89
2023/09/01 07:44:39;;;;;;;0.17;0.17;;;;;;;24.97;43.87;100156.06;4373384;32;33005;-89
2023/09/01 07:47:07;;;;;;;0.37;0.32;;;;;;;25.05;43.51;100149.88;4397207;32;34331;-89
2023/09/01 07:49:35;;;;;;;0.32;0.32;;;;;;;24.98;45.06;100149.66;4388993;32;32702;-89
2023/09/01 07:52:03;;;;;;;0.60;0.50;;;;;;;25.02;44.87;100145.66;4385703;32;33613;-90
2023/09/01 07:54:32;;;;;;;0.17;0.17;;;;;;;24.54;45.43;100145.84;4380211;32;33994;-90
2023/09/01 07:56:59;;;;;;;0.28;0.10;;;;;;;24.68;46.16;100148.06;4383325;32;33660;-90
2023/09/01 07:59:27;;;;;;;0.20;0.20;;;;;;;24.69;45.85;100143.56;4385932;32;34338;-90
2023/09/01 08:01:58;;;;;;;1.02;0.62;;;;;;;24.75;46.48;100146.50;4379582;32;32723;-88
2023/09/01 08:04:26;;;;;;;0.62;0.62;;;;;;;24.87;46.62;100146.28;4356821;32;32360;-90
2023/09/01 08:06:54;;;;;;;1.27;0.75;;;;;;;25.06;45.45;100139.91;4379889;32;33815;-89
2023/09/01 08:09:21;;;;;;;0.10;0.10;;;;;;;24.85;46.11;100143.75;4383291;32;33701;-89
2023/09/01 08:11:49;;;;;;;0.47;0.47;;;;;;;25.08;43.75;100143.38;4379441;32;32728;-89
2023/09/01 08:14:17;;;;;;;0.10;0.10;;;;;;;25.27;44.07;100148.63;4393199;32;33324;-89
2023/09/01 08:16:45;;;;;;;0.30;0.30;;;;;;;25.15;43.45;100158.78;4372179;32;32840;-89
2023/09/01 08:19:14;;;;;;;0.30;0.30;;;;;;;25.22;43.20;100146.41;4378617;32;33966;-89
2023/09/01 08:21:41;;;;;;;1.85;0.10;;;;;;;25.61;43.46;100151.50;4381591;32;33717;-89
2023/09/01 08:24:09;;;;;;;0.37;0.37;;;;;;;25.80;43.04;100150.50;4374712;32;31779;-89
2023/09/01 08:26:37;;;;;;;0.00;0.00;;;;;;;25.46;43.60;100148.50;4368278;32;33072;-91
2023/09/01 08:29:05;;;;;;;0.70;0.70;;;;;;;25.31;43.83;100162.69;4389568;32;33051;-90
2023/09/01 08:31:33;;;;;;;0.00;0.00;;;;;;;25.47;43.73;100160.16;4378554;32;34071;-90
2023/09/01 08:34:02;;;;;;;0.22;0.22;;;;;;;25.48;44.03;100161.84;4381166;32;32902;-89
2023/09/01 08:36:29;;;;;;;10.02;0.55;;;;;;;25.70;42.79;100161.38;4372696;32;33807;-90
2023/09/01 08:38:57;;;;;;;0.47;0.47;;;;;;;25.57;43.43;100158.22;4374295;32;34390;-90
2023/09/01 08:41:25;;;;;;;0.05;0.00;;;;;;;25.70;43.12;100161.38;4371727;32;33610;-90
2023/09/01 08:44:03;;;;;;;2.45;0.10;;;;;;;25.47;43.76;100160.16;4365291;32;32763;-89
2023/09/01 08:46:31;;;;;;;0.60;0.30;;;;;;;25.44;43.42;100149.63;4340707;32;33657;-89
2023/09/01 08:48:59;;;;;;;0.05;0.03;;;;;;;25.70;43.95;100139.75;4354679;32;33084;-89
2023/09/01 08:51:33;;;;;;;0.55;0.45;;;;;;;25.65;42.94;100147.47;4362125;32;33879;-89
2023/09/01 08:54:00;;;;;;;2.28;0.30;;;;;;;25.50;43.63;100151.75;4369613;32;32195;-89
2023/09/01 08:56:30;;;;;;;0.20;0.20;;;;;;;25.50;43.55;100157.16;4357436;32;32898;-89
2023/09/01 08:58:58;;;;;;;0.13;0.10;;;;;;;25.59;43.00;100150.81;4382811;32;32005;-88
2023/09/01 09:01:27;;;;;;;0.28;0.28;;;;;;;25.74;42.90;100146.56;4364560;32;34143;-87
2023/09/01 09:03:57;;;;;;;1.80;0.65;;;;;;;25.88;43.74;100147.03;4369207;32;32858;-88
2023/09/01 09:06:33;;;;;;;0.30;0.30;;;;;;;25.90;43.79;100145.00;4356712;32;34750;-87
2023/09/01 09:09:14;;;;;;;0.10;0.10;;;;;;;25.69;43.06;100140.75;4357949;32;34660;-88
2023/09/01 09:11:57;;;;;;;0.52;0.52;;;;;;;25.90;42.03;100139.59;4371075;32;33897;-88
2023/09/01 09:14:27;;;;;;;0.65;0.43;;;;;;;26.12;42.32;100143.66;4364177;32;32691;-88
2023/09/01 09:16:56;;;;;;;0.10;0.10;;;;;;;26.12;42.28;100140.94;4365369;32;32765;-88
2023/09/01 09:19:24;;;;;;;0.25;0.20;;;;;;;25.95;41.79;100137.25;4347257;32;33038;-88
2023/09/01 09:22:06;;;;;;;0.13;0.13;;;;;;;26.19;41.19;100134.72;4366870;32;33895;-88
2023/09/01 09:24:36;;;;;;;0.35;0.15;;;;;;;26.45;40.86;100140.16;4350513;32;36012;-89
2023/09/01 09:27:05;;;;;;;0.35;0.35;;;;;;;26.20;41.97;100141.81;4361355;32;33907;-88
2023/09/01 09:29:39;;;;;;;0.40;0.40;;;;;;;26.59;41.59;100140.53;4364556;32;34003;-88
2023/09/01 09:32:20;;;;;;;0.35;0.35;;;;;;;27.06;39.78;100133.66;4360393;32;32801;-88
2023/09/01 09:35:05;;;;;;;0.57;0.57;;;;;;;26.74;40.45;100138.94;4366236;32;32642;-88
2023/09/01 09:37:34;;;;;;;0.10;0.10;;;;;;;27.11;38.71;100125.06;4353068;32;33534;-88
2023/09/01 09:40:20;;;;;;;0.00;0.00;;;;;;;26.95;39.75;100131.22;4347560;32;32981;-88
2023/09/01 09:42:48;;;;;;;0.25;0.20;;;;;;;26.57;40.72;100132.59;4369517;32;34268;-88
2023/09/01 09:45:26;;;;;;;0.37;0.30;;;;;;;26.76;40.80;100129.63;4345187;32;33365;-89
2023/09/01 09:48:00;;;;;;;0.98;0.43;;;;;;;26.81;40.04;100129.97;4359091;32;34452;-88
2023/09/01 09:50:28;;;;;;;0.75;0.32;;;;;;;26.69;40.46;100128.59;4357038;32;33600;-88
2023/09/01 09:52:59;;;;;;;1.48;0.30;;;;;;;26.31;40.69;100127.19;4348649;32;33128;-88
2023/09/01 09:55:32;;;;;;;0.00;0.00;;;;;;;26.61;40.94;100125.84;4374359;32;32930;-88
2023/09/01 09:58:07;;;;;;;0.35;0.35;;;;;;;27.15;40.45;100115.53;4379537;32;33143;-88
2023/09/01 10:00:59;;;;;;;0.73;0.45;;;;;;;27.21;39.34;100122.19;4349128;32;34033;-89
2023/09/01 10:03:29;;;;;;;0.30;0.22;;;;;;;27.22;38.53;100116.59;4363803;32;34645;-88
2023/09/01 10:05:58;;;;;;;0.10;0.10;;;;;;;27.26;38.79;100117.97;4362290;32;32799;-89
2023/09/01 10:08:26;;;;;;;0.45;0.25;;;;;;;27.55;39.27;100122.91;4360048;32;32489;-89
2023/09/01 10:10:57;;;;;;;1.80;0.30;;;;;;;27.17;38.47;100110.81;4358174;32;34174;-89
2023/09/01 10:13:26;;;;;;;1.65;0.40;;;;;;;27.63;37.87;100122.06;4348110;32;34024;-89
2023/09/01 10:15:54;;;;;;;0.90;0.65;;;;;;;27.39;37.57;100113.88;4365094;32;33369;-89
2023/09/01 10:18:24;;;;;;;0.82;0.32;;;;;;;27.49;37.76;100122.75;4316533;32;33267;-88
2023/09/01 10:20:52;;;;;;;0.30;0.30;;;;;;;27.35;37.97;100121.53;4299233;32;34317;-83
2023/09/01 10:23:30;;;;;;;0.20;0.20;;;;;;;28.44;36.99;100109.41;4427538;31;456671;-83
2023/09/01 10:26:11;;;;;;;0.20;0.20;;;;;;;28.44;36.99;100109.41;4328108;32;33013;-83
2023/09/01 10:28:57;;;;;;;0.30;0.30;;;;;;;28.52;37.75;100114.84;4319960;32;33202;-82
2023/09/01 10:32:38;;;;;;;1.37;0.45;;;;;;;29.16;34.64;100106.59;4466099;31;102852;-82
2023/09/01 10:35:06;;;;;;;0.30;0.20;;;;;;;29.16;34.64;100106.59;4426680;32;32249;-83
2023/09/01 10:37:37;;;;;;;1.33;0.40;;;;;;;28.49;34.88;100123.34;4346334;32;35083;-82
2023/09/01 10:42:48;;;;;;;0.10;0.00;;;;;;;28.27;34.84;100112.16;4460509;31;97493;-82
2023/09/01 10:45:16;;;;;;;0.35;0.35;;;;;;;28.27;34.84;100112.16;4382174;32;31837;-82
2023/09/01 10:47:45;;;;;;;0.30;0.30;;;;;;;27.57;36.08;100106.44;4388100;32;35801;-83
2023/09/01 10:50:14;;;;;;;0.62;0.25;;;;;;;28.41;36.48;100107.91;4385312;32;32906;-83
2023/09/01 10:52:42;;;;;;;0.70;0.28;;;;;;;28.49;35.50;100109.78;4393152;32;32630;-83
2023/09/01 10:55:10;;;;;;;0.13;0.13;;;;;;;28.26;34.93;100107.75;4363276;32;32714;-82
2023/09/01 10:57:51;;;;;;;0.15;0.10;;;;;;;28.64;35.69;100102.56;4382998;32;33283;-83
2023/09/01 11:00:33;;;;;;;1.58;0.62;;;;;;;28.88;34.46;100098.88;4368653;32;34059;-83
2023/09/01 11:03:29;;;;;;;0.20;0.20;;;;;;;29.15;36.03;100100.31;4374532;32;34088;-83
2023/09/01 11:06:01;;;;;;;0.20;0.20;;;;;;;28.53;34.81;100101.09;4368369;32;33839;-83
2023/09/01 11:08:30;;;;;;;0.57;0.57;;;;;;;28.16;36.66;100115.25;4388668;32;33967;-83
2023/09/01 11:11:06;;;;;;;0.75;0.45;;;;;;;27.81;36.68;100106.47;4384774;32;33315;-83
2023/09/01 11:13:34;;;;;;;0.55;0.55;;;;;;;28.46;35.95;100112.81;4359466;32;33217;-82
2023/09/01 11:16:09;;;;;;;0.20;0.03;;;;;;;28.01;36.47;100106.97;4381075;32;34130;-83
2023/09/01 11:18:37;;;;;;;0.40;0.40;;;;;;;27.78;35.72;100095.97;4336540;32;32286;-82
2023/09/01 11:21:07;;;;;;;0.20;0.10;;;;;;;28.37;35.81;100094.87;4321105;32;33422;-82
2023/09/01 11:23:35;;;;;;;0.00;0.00;;;;;;;28.35;35.74;100102.34;4335436;32;32435;-82
2023/09/01 11:26:03;;;;;;;0.20;0.20;;;;;;;28.49;35.46;100098.91;4285368;33;32150;-83
2023/09/01 11:28:32;;;;;;;0.00;0.00;;;;;;;28.84;34.27;100105.69;4285530;33;32616;-83
2023/09/01 11:31:03;;;;;;;1.23;0.57;;;;;;;28.56;34.95;100094.44;4287678;32;33736;-82
2023/09/01 11:33:36;;;;;;;0.10;0.10;;;;;;;28.69;34.28;100100.16;4262201;33;32196;-83
2023/09/01 11:36:06;;;;;;;0.32;0.32;;;;;;;29.14;35.74;100098.59;4255447;33;31654;-82
2023/09/01 11:38:37;;;;;;;0.57;0.43;;;;;;;28.95;35.43;100099.88;4270956;32;34787;-83
2023/09/01 11:41:12;;;;;;;0.00;0.00;;;;;;;28.58;34.82;100103.25;4273399;32;33958;-83
2023/09/01 11:43:50;;;;;;;1.12;0.20;;;;;;;29.01;34.75;100098.34;4223619;33;33844;-83